sensor_id;sensor_type;location;lat;lon;timestamp;pressure;altitude;pressure_sealevel;temperature;humidity
34506;BME280;20748;42.632;23.198;2023-03-23T00:02:00;91978.41;;;3.61;100.00
34506;BME280;20748;42.632;23.198;2023-03-23T00:04:32;91983.06;;;3.64;100.00
34506;BME280;20748;42.632;23.198;2023-03-23T00:07:04;91970.16;;;3.64;100.00
34506;BME280;20748;42.632;23.198;2023-03-23T00:09:36;91973.00;;;3.57;100.00
34506;BME280;20748;42.632;23.198;2023-03-23T00:12:12;91970.13;;;3.48;100.00
34506;BME280;20748;42.632;23.198;2023-03-23T00:14:47;91971.94;;;3.43;100.00
34506;BME280;20748;42.632;23.198;2023-03-23T00:17:19;91966.25;;;3.46;100.00
34506;BME280;20748;42.632;23.198;2023-03-23T00:19:51;91969.34;;;3.43;100.00
34506;BME280;20748;42.632;23.198;2023-03-23T00:22:24;91968.81;;;3.41;100.00
34506;BME280;20748;42.632;23.198;2023-03-23T00:24:56;91970.09;;;3.38;100.00
34506;BME280;20748;42.632;23.198;2023-03-23T00:27:28;91969.59;;;3.36;100.00
34506;BME280;20748;42.632;23.198;2023-03-23T00:30:00;91968.00;;;3.30;100.00
34506;BME280;20748;42.632;23.198;2023-03-23T00:32:33;91964.66;;;3.29;100.00
34506;BME280;20748;42.632;23.198;2023-03-23T00:35:07;91965.44;;;3.30;100.00
34506;BME280;20748;42.632;23.198;2023-03-23T00:37:41;91965.44;;;3.30;100.00
34506;BME280;20748;42.632;23.198;2023-03-23T00:40:13;91968.03;;;3.35;100.00
34506;BME280;20748;42.632;23.198;2023-03-23T00:42:45;91970.06;;;3.28;100.00
34506;BME280;20748;42.632;23.198;2023-03-23T00:45:17;91968.00;;;3.25;100.00
34506;BME280;20748;42.632;23.198;2023-03-23T00:47:49;91965.91;;;3.21;100.00
34506;BME280;20748;42.632;23.198;2023-03-23T00:50:22;91973.41;;;3.28;100.00
34506;BME280;20748;42.632;23.198;2023-03-23T00:52:54;91971.84;;;3.17;100.00
34506;BME280;20748;42.632;23.198;2023-03-23T00:55:27;91965.91;;;3.16;100.00
34506;BME280;20748;42.632;23.198;2023-03-23T00:58:01;91969.78;;;3.14;100.00
34506;BME280;20748;42.632;23.198;2023-03-23T01:00:33;91967.72;;;3.16;100.00
34506;BME280;20748;42.632;23.198;2023-03-23T01:03:08;91966.19;;;3.20;100.00
34506;BME280;20748;42.632;23.198;2023-03-23T01:05:43;91970.06;;;3.28;100.00
34506;BME280;20748;42.632;23.198;2023-03-23T01:08:19;91961.28;;;3.24;100.00
34506;BME280;20748;42.632;23.198;2023-03-23T01:11:02;91965.38;;;3.14;100.00
34506;BME280;20748;42.632;23.198;2023-03-23T01:13:34;91958.88;;;3.01;100.00
34506;BME280;20748;42.632;23.198;2023-03-23T01:16:07;91957.63;;;3.09;100.00
34506;BME280;20748;42.632;23.198;2023-03-23T01:18:40;91960.75;;;3.11;100.00
34506;BME280;20748;42.632;23.198;2023-03-23T01:21:14;91955.31;;;3.07;100.00
34506;BME280;20748;42.632;23.198;2023-03-23T01:23:47;91956.84;;;3.08;100.00
34506;BME280;20748;42.632;23.198;2023-03-23T01:26:22;91957.88;;;3.07;100.00
34506;BME280;20748;42.632;23.198;2023-03-23T01:28:54;91951.44;;;3.10;100.00
34506;BME280;20748;42.632;23.198;2023-03-23T01:31:27;91955.84;;;3.15;100.00
34506;BME280;20748;42.632;23.198;2023-03-23T01:33:59;91955.31;;;3.13;100.00
34506;BME280;20748;42.632;23.198;2023-03-23T01:36:32;91945.78;;;3.13;100.00
34506;BME280;20748;42.632;23.198;2023-03-23T01:39:06;91951.44;;;3.15;100.00
34506;BME280;20748;42.632;23.198;2023-03-23T01:41:39;91952.75;;;3.18;100.00
34506;BME280;20748;42.632;23.198;2023-03-23T01:47:24;91955.59;;;3.16;100.00
34506;BME280;20748;42.632;23.198;2023-03-23T01:50:00;91945.75;;;3.08;100.00
34506;BME280;20748;42.632;23.198;2023-03-23T01:52:32;91941.41;;;3.08;100.00
34506;BME280;20748;42.632;23.198;2023-03-23T01:55:07;91942.94;;;3.09;100.00
34506;BME280;20748;42.632;23.198;2023-03-23T01:57:40;91949.63;;;3.11;100.00
34506;BME280;20748;42.632;23.198;2023-03-23T02:00:13;91939.56;;;3.09;100.00
34506;BME280;20748;42.632;23.198;2023-03-23T02:02:50;91935.66;;;3.01;100.00
34506;BME280;20748;42.632;23.198;2023-03-23T02:05:30;91935.19;;;3.04;100.00
34506;BME280;20748;42.632;23.198;2023-03-23T02:08:10;91934.91;;;3.01;100.00
34506;BME280;20748;42.632;23.198;2023-03-23T02:10:44;91938.50;;;2.94;100.00
34506;BME280;20748;42.632;23.198;2023-03-23T02:13:17;91934.38;;;2.93;100.00
34506;BME280;20748;42.632;23.198;2023-03-23T02:15:57;91939.81;;;2.97;100.00
34506;BME280;20748;42.632;23.198;2023-03-23T02:18:45;91941.59;;;2.97;100.00
34506;BME280;20748;42.632;23.198;2023-03-23T02:21:32;91934.91;;;2.95;100.00
34506;BME280;20748;42.632;23.198;2023-03-23T02:27:24;91941.09;;;3.00;100.00
34506;BME280;20748;42.632;23.198;2023-03-23T02:30:15;91945.22;;;3.01;100.00
34506;BME280;20748;42.632;23.198;2023-03-23T02:36:02;91945.44;;;2.94;100.00
34506;BME280;20748;42.632;23.198;2023-03-23T02:38:41;91947.25;;;2.93;100.00
34506;BME280;20748;42.632;23.198;2023-03-23T02:41:16;91941.59;;;2.97;100.00
34506;BME280;20748;42.632;23.198;2023-03-23T02:43:50;91945.75;;;3.03;100.00
34506;BME280;20748;42.632;23.198;2023-03-23T02:46:23;91944.72;;;3.04;100.00
34506;BME280;20748;42.632;23.198;2023-03-23T02:48:57;91942.44;;;3.07;100.00
34506;BME280;20748;42.632;23.198;2023-03-23T02:51:33;91947.31;;;3.09;100.00
34506;BME280;20748;42.632;23.198;2023-03-23T02:54:07;91949.84;;;3.04;100.00
34506;BME280;20748;42.632;23.198;2023-03-23T02:56:40;91954.53;;;3.07;100.00
34506;BME280;20748;42.632;23.198;2023-03-23T02:59:21;91948.31;;;3.03;100.00
34506;BME280;20748;42.632;23.198;2023-03-23T03:02:01;91951.44;;;3.05;100.00
34506;BME280;20748;42.632;23.198;2023-03-23T03:04:38;91957.59;;;3.04;100.00
34506;BME280;20748;42.632;23.198;2023-03-23T03:07:30;91951.94;;;3.07;100.00
34506;BME280;20748;42.632;23.198;2023-03-23T03:10:09;91952.97;;;3.06;100.00
34506;BME280;20748;42.632;23.198;2023-03-23T03:12:47;91949.34;;;3.02;100.00
34506;BME280;20748;42.632;23.198;2023-03-23T03:15:26;91960.97;;;3.04;100.00
34506;BME280;20748;42.632;23.198;2023-03-23T03:18:05;91958.63;;;3.03;100.00
34506;BME280;20748;42.632;23.198;2023-03-23T03:20:43;91960.41;;;2.97;100.00
34506;BME280;20748;42.632;23.198;2023-03-23T03:23:19;91955.00;;;2.93;100.00
34506;BME280;20748;42.632;23.198;2023-03-23T03:25:52;91964.53;;;2.93;100.00
34506;BME280;20748;42.632;23.198;2023-03-23T03:28:37;91969.91;;;2.91;100.00
34506;BME280;20748;42.632;23.198;2023-03-23T03:31:09;91970.69;;;2.92;100.00
34506;BME280;20748;42.632;23.198;2023-03-23T03:33:42;91977.63;;;2.86;100.00
34506;BME280;20748;42.632;23.198;2023-03-23T03:36:18;91976.59;;;2.82;100.00
34506;BME280;20748;42.632;23.198;2023-03-23T03:38:52;91971.94;;;2.84;100.00
34506;BME280;20748;42.632;23.198;2023-03-23T03:41:25;91978.34;;;2.76;100.00
34506;BME280;20748;42.632;23.198;2023-03-23T03:43:57;91976.81;;;2.75;100.00
34506;BME280;20748;42.632;23.198;2023-03-23T03:46:29;91975.75;;;2.71;100.00
34506;BME280;20748;42.632;23.198;2023-03-23T03:49:04;91973.91;;;2.66;100.00
34506;BME280;20748;42.632;23.198;2023-03-23T03:51:42;91971.06;;;2.63;100.00
34506;BME280;20748;42.632;23.198;2023-03-23T03:54:21;91970.00;;;2.59;100.00
34506;BME280;20748;42.632;23.198;2023-03-23T03:56:53;91976.97;;;2.58;100.00
34506;BME280;20748;42.632;23.198;2023-03-23T03:59:47;91975.41;;;2.52;100.00
34506;BME280;20748;42.632;23.198;2023-03-23T04:02:22;91979.47;;;2.48;100.00
34506;BME280;20748;42.632;23.198;2023-03-23T04:04:56;91972.78;;;2.47;100.00
34506;BME280;20748;42.632;23.198;2023-03-23T04:07:29;91974.34;;;2.48;100.00
34506;BME280;20748;42.632;23.198;2023-03-23T04:10:02;91969.69;;;2.50;100.00
34506;BME280;20748;42.632;23.198;2023-03-23T04:12:35;91970.44;;;2.45;100.00
34506;BME280;20748;42.632;23.198;2023-03-23T04:15:26;91977.97;;;2.52;100.00
34506;BME280;20748;42.632;23.198;2023-03-23T04:17:58;91967.06;;;2.39;100.00
34506;BME280;20748;42.632;23.198;2023-03-23T04:20:31;91980.22;;;2.43;100.00
34506;BME280;20748;42.632;23.198;2023-03-23T04:23:03;91977.91;;;2.41;100.00
34506;BME280;20748;42.632;23.198;2023-03-23T04:25:38;91975.81;;;2.38;100.00
34506;BME280;20748;42.632;23.198;2023-03-23T04:28:12;91972.47;;;2.38;100.00
34506;BME280;20748;42.632;23.198;2023-03-23T04:30:54;91979.72;;;2.46;100.00
34506;BME280;20748;42.632;23.198;2023-03-23T04:33:28;91978.88;;;2.35;100.00
34506;BME280;20748;42.632;23.198;2023-03-23T04:36:01;91983.25;;;2.35;100.00
34506;BME280;20748;42.632;23.198;2023-03-23T04:38:44;91983.22;;;2.30;100.00
34506;BME280;20748;42.632;23.198;2023-03-23T04:41:23;91984.75;;;2.25;100.00
34506;BME280;20748;42.632;23.198;2023-03-23T04:44:09;91985.50;;;2.26;100.00
34506;BME280;20748;42.632;23.198;2023-03-23T04:46:49;91991.22;;;2.28;100.00
34506;BME280;20748;42.632;23.198;2023-03-23T04:49:24;91995.03;;;2.25;100.00
34506;BME280;20748;42.632;23.198;2023-03-23T04:52:04;91982.44;;;2.29;100.00
34506;BME280;20748;42.632;23.198;2023-03-23T04:54:48;91982.97;;;2.31;100.00
34506;BME280;20748;42.632;23.198;2023-03-23T04:57:21;91992.50;;;2.31;100.00
34506;BME280;20748;42.632;23.198;2023-03-23T05:00:14;91984.03;;;2.35;100.00
34506;BME280;20748;42.632;23.198;2023-03-23T05:02:52;91995.38;;;2.34;100.00
34506;BME280;20748;42.632;23.198;2023-03-23T05:05:29;92000.91;;;2.21;100.00
34506;BME280;20748;42.632;23.198;2023-03-23T05:08:04;92005.81;;;2.22;100.00
34506;BME280;20748;42.632;23.198;2023-03-23T05:10:40;92005.06;;;2.22;100.00
34506;BME280;20748;42.632;23.198;2023-03-23T05:13:16;92014.34;;;2.23;100.00
34506;BME280;20748;42.632;23.198;2023-03-23T05:15:52;92010.72;;;2.24;100.00
34506;BME280;20748;42.632;23.198;2023-03-23T05:18:24;92015.09;;;2.23;100.00
34506;BME280;20748;42.632;23.198;2023-03-23T05:20:59;92017.47;;;2.30;100.00
34506;BME280;20748;42.632;23.198;2023-03-23T05:23:32;92014.91;;;2.30;100.00
34506;BME280;20748;42.632;23.198;2023-03-23T05:26:14;92017.72;;;2.28;100.00
34506;BME280;20748;42.632;23.198;2023-03-23T05:28:46;92017.22;;;2.32;100.00
34506;BME280;20748;42.632;23.198;2023-03-23T05:31:24;92021.63;;;2.36;100.00
34506;BME280;20748;42.632;23.198;2023-03-23T05:33:57;92031.69;;;2.38;100.00
34506;BME280;20748;42.632;23.198;2023-03-23T05:36:34;92032.22;;;2.40;100.00
34506;BME280;20748;42.632;23.198;2023-03-23T05:39:25;92038.91;;;2.41;100.00
34506;BME280;20748;42.632;23.198;2023-03-23T05:42:24;92037.59;;;2.38;100.00
34506;BME280;20748;42.632;23.198;2023-03-23T05:45:19;92045.09;;;2.40;100.00
34506;BME280;20748;42.632;23.198;2023-03-23T05:47:55;92037.41;;;2.45;100.00
34506;BME280;20748;42.632;23.198;2023-03-23T05:50:30;92036.16;;;2.48;100.00
34506;BME280;20748;42.632;23.198;2023-03-23T05:53:03;92045.47;;;2.54;100.00
34506;BME280;20748;42.632;23.198;2023-03-23T05:55:38;92047.28;;;2.59;100.00
34506;BME280;20748;42.632;23.198;2023-03-23T05:58:31;92038.53;;;2.60;100.00
34506;BME280;20748;42.632;23.198;2023-03-23T06:01:06;92044.75;;;2.64;100.00
34506;BME280;20748;42.632;23.198;2023-03-23T06:03:38;92044.53;;;2.71;100.00
34506;BME280;20748;42.632;23.198;2023-03-23T06:06:21;92043.00;;;2.75;100.00
34506;BME280;20748;42.632;23.198;2023-03-23T06:08:58;92046.13;;;2.77;100.00
34506;BME280;20748;42.632;23.198;2023-03-23T06:11:45;92052.34;;;2.81;100.00
34506;BME280;20748;42.632;23.198;2023-03-23T06:14:39;92048.72;;;2.77;100.00
34506;BME280;20748;42.632;23.198;2023-03-23T06:17:12;92049.03;;;2.86;100.00
34506;BME280;20748;42.632;23.198;2023-03-23T06:19:45;92048.50;;;2.89;100.00
34506;BME280;20748;42.632;23.198;2023-03-23T06:22:20;92050.56;;;2.87;100.00
34506;BME280;20748;42.632;23.198;2023-03-23T06:25:02;92048.25;;;2.90;100.00
34506;BME280;20748;42.632;23.198;2023-03-23T06:27:43;92042.34;;;2.95;100.00
34506;BME280;20748;42.632;23.198;2023-03-23T06:30:19;92044.97;;;3.00;100.00
34506;BME280;20748;42.632;23.198;2023-03-23T06:32:52;92044.97;;;3.00;100.00
34506;BME280;20748;42.632;23.198;2023-03-23T06:35:44;92044.53;;;3.14;100.00
34506;BME280;20748;42.632;23.198;2023-03-23T06:38:29;92039.97;;;3.31;100.00
34506;BME280;20748;42.632;23.198;2023-03-23T06:41:01;92048.00;;;3.40;100.00
34506;BME280;20748;42.632;23.198;2023-03-23T06:43:35;92039.78;;;3.54;100.00
34506;BME280;20748;42.632;23.198;2023-03-23T06:46:17;92037.81;;;3.76;100.00
34506;BME280;20748;42.632;23.198;2023-03-23T06:48:58;92035.50;;;3.85;100.00
34506;BME280;20748;42.632;23.198;2023-03-23T06:51:39;92049.50;;;4.15;100.00
34506;BME280;20748;42.632;23.198;2023-03-23T06:54:11;92050.03;;;4.33;100.00
34506;BME280;20748;42.632;23.198;2023-03-23T06:56:48;92046.13;;;4.51;100.00
34506;BME280;20748;42.632;23.198;2023-03-23T06:59:20;92051.06;;;4.68;100.00
34506;BME280;20748;42.632;23.198;2023-03-23T07:01:53;92044.06;;;4.84;100.00
34506;BME280;20748;42.632;23.198;2023-03-23T07:04:25;92050.75;;;5.06;100.00
34506;BME280;20748;42.632;23.198;2023-03-23T07:07:11;92047.84;;;5.34;100.00
34506;BME280;20748;42.632;23.198;2023-03-23T07:09:54;92052.41;;;5.58;100.00
34506;BME280;20748;42.632;23.198;2023-03-23T07:12:28;92053.91;;;5.74;100.00
34506;BME280;20748;42.632;23.198;2023-03-23T07:15:01;92057.69;;;5.93;100.00
34506;BME280;20748;42.632;23.198;2023-03-23T07:17:34;92059.97;;;6.10;100.00
34506;BME280;20748;42.632;23.198;2023-03-23T07:20:35;92051.59;;;6.23;100.00
34506;BME280;20748;42.632;23.198;2023-03-23T07:23:08;92058.44;;;6.43;100.00
34506;BME280;20748;42.632;23.198;2023-03-23T07:25:48;92059.94;;;6.55;100.00
34506;BME280;20748;42.632;23.198;2023-03-23T07:28:25;92057.00;;;6.62;100.00
34506;BME280;20748;42.632;23.198;2023-03-23T07:31:00;92060.56;;;6.71;100.00
34506;BME280;20748;42.632;23.198;2023-03-23T07:33:33;92066.97;;;6.84;100.00
34506;BME280;20748;42.632;23.198;2023-03-23T07:36:06;92064.72;;;7.02;100.00
34506;BME280;20748;42.632;23.198;2023-03-23T07:38:40;92069.88;;;7.07;100.00
34506;BME280;20748;42.632;23.198;2023-03-23T07:41:13;92071.34;;;7.18;100.00
34506;BME280;20748;42.632;23.198;2023-03-23T07:43:48;92074.75;;;7.38;100.00
34506;BME280;20748;42.632;23.198;2023-03-23T07:46:34;92069.78;;;7.42;100.00
34506;BME280;20748;42.632;23.198;2023-03-23T07:49:18;92079.22;;;7.57;100.00
34506;BME280;20748;42.632;23.198;2023-03-23T07:52:05;92075.47;;;7.68;100.00
34506;BME280;20748;42.632;23.198;2023-03-23T07:54:37;92080.56;;;7.78;100.00
34506;BME280;20748;42.632;23.198;2023-03-23T07:57:19;92083.47;;;7.96;100.00
34506;BME280;20748;42.632;23.198;2023-03-23T07:59:56;92085.38;;;8.10;100.00
34506;BME280;20748;42.632;23.198;2023-03-23T08:02:28;92087.25;;;8.23;100.00
34506;BME280;20748;42.632;23.198;2023-03-23T08:05:23;92083.25;;;8.31;100.00
34506;BME280;20748;42.632;23.198;2023-03-23T08:08:23;92090.16;;;8.60;100.00
34506;BME280;20748;42.632;23.198;2023-03-23T08:11:31;92090.22;;;8.74;100.00
34506;BME280;20748;42.632;23.198;2023-03-23T08:14:23;92079.94;;;8.83;100.00
34506;BME280;20748;42.632;23.198;2023-03-23T08:17:18;92095.94;;;9.23;100.00
34506;BME280;20748;42.632;23.198;2023-03-23T08:20:12;92092.56;;;9.23;100.00
34506;BME280;20748;42.632;23.198;2023-03-23T08:23:02;92092.50;;;9.42;100.00
34506;BME280;20748;42.632;23.198;2023-03-23T08:26:06;92091.16;;;9.45;100.00
34506;BME280;20748;42.632;23.198;2023-03-23T08:28:57;92090.00;;;9.51;100.00
34506;BME280;20748;42.632;23.198;2023-03-23T08:31:49;92092.44;;;9.61;99.39
34506;BME280;20748;42.632;23.198;2023-03-23T08:34:34;92088.16;;;9.79;99.43
34506;BME280;20748;42.632;23.198;2023-03-23T08:37:35;92088.84;;;9.85;98.84
34506;BME280;20748;42.632;23.198;2023-03-23T08:40:40;92089.13;;;9.98;90.34
34506;BME280;20748;42.632;23.198;2023-03-23T08:43:33;92092.41;;;10.03;88.76
34506;BME280;20748;42.632;23.198;2023-03-23T08:46:14;92091.22;;;10.10;91.81
34506;BME280;20748;42.632;23.198;2023-03-23T08:49:07;92097.03;;;10.20;86.66
34506;BME280;20748;42.632;23.198;2023-03-23T08:51:59;92101.03;;;10.41;84.02
34506;BME280;20748;42.632;23.198;2023-03-23T08:54:38;92094.56;;;10.52;86.63
34506;BME280;20748;42.632;23.198;2023-03-23T08:57:36;92087.50;;;10.39;82.46
34506;BME280;20748;42.632;23.198;2023-03-23T09:00:26;92095.38;;;10.61;81.17
34506;BME280;20748;42.632;23.198;2023-03-23T09:03:18;92085.38;;;10.78;81.01
34506;BME280;20748;42.632;23.198;2023-03-23T09:06:10;92085.84;;;11.03;80.62
34506;BME280;20748;42.632;23.198;2023-03-23T09:08:50;92084.78;;;11.04;77.30
34506;BME280;20748;42.632;23.198;2023-03-23T09:11:22;92091.78;;;11.17;77.81
34506;BME280;20748;42.632;23.198;2023-03-23T09:13:54;92079.44;;;11.09;76.06
34506;BME280;20748;42.632;23.198;2023-03-23T09:16:27;92103.22;;;11.30;74.00
34506;BME280;20748;42.632;23.198;2023-03-23T09:19:00;92098.06;;;11.48;74.07
34506;BME280;20748;42.632;23.198;2023-03-23T09:21:32;92090.94;;;11.71;76.11
34506;BME280;20748;42.632;23.198;2023-03-23T09:24:05;92085.63;;;11.53;73.58
34506;BME280;20748;42.632;23.198;2023-03-23T09:26:37;92082.13;;;11.58;74.35
34506;BME280;20748;42.632;23.198;2023-03-23T09:29:09;92088.84;;;11.82;72.26
34506;BME280;20748;42.632;23.198;2023-03-23T09:31:42;92081.75;;;11.82;73.26
34506;BME280;20748;42.632;23.198;2023-03-23T09:34:14;92067.38;;;11.62;70.23
34506;BME280;20748;42.632;23.198;2023-03-23T09:36:48;92080.03;;;11.69;70.55
34506;BME280;20748;42.632;23.198;2023-03-23T09:39:20;92085.91;;;11.92;70.83
34506;BME280;20748;42.632;23.198;2023-03-23T09:42:03;92067.84;;;12.22;71.28
34506;BME280;20748;42.632;23.198;2023-03-23T09:44:47;92079.28;;;12.62;67.51
34506;BME280;20748;42.632;23.198;2023-03-23T09:47:27;92073.09;;;12.93;62.36
34506;BME280;20748;42.632;23.198;2023-03-23T09:50:08;92065.81;;;13.25;64.08
34506;BME280;20748;42.632;23.198;2023-03-23T09:52:44;92068.34;;;13.61;59.53
34506;BME280;20748;42.632;23.198;2023-03-23T09:55:18;92075.31;;;13.39;59.65
34506;BME280;20748;42.632;23.198;2023-03-23T09:57:55;92069.38;;;13.21;58.39
34506;BME280;20748;42.632;23.198;2023-03-23T10:00:33;92074.75;;;13.24;60.23
34506;BME280;20748;42.632;23.198;2023-03-23T10:03:12;92066.25;;;13.27;55.37
34506;BME280;20748;42.632;23.198;2023-03-23T10:05:48;92069.22;;;13.08;56.59
34506;BME280;20748;42.632;23.198;2023-03-23T10:08:22;92065.84;;;12.99;58.62
34506;BME280;20748;42.632;23.198;2023-03-23T10:11:00;92062.41;;;13.25;57.28
34506;BME280;20748;42.632;23.198;2023-03-23T10:13:55;92059.22;;;13.10;58.66
34506;BME280;20748;42.632;23.198;2023-03-23T10:16:34;92055.09;;;13.00;56.55
34506;BME280;20748;42.632;23.198;2023-03-23T10:19:11;92058.69;;;13.26;59.33
34506;BME280;20748;42.632;23.198;2023-03-23T10:21:54;92065.59;;;13.57;57.80
34506;BME280;20748;42.632;23.198;2023-03-23T10:24:33;92067.75;;;13.85;52.99
34506;BME280;20748;42.632;23.198;2023-03-23T10:27:15;92049.28;;;13.81;55.14
34506;BME280;20748;42.632;23.198;2023-03-23T10:29:53;92053.47;;;13.74;55.09
34506;BME280;20748;42.632;23.198;2023-03-23T10:32:40;92048.66;;;13.85;53.79
34506;BME280;20748;42.632;23.198;2023-03-23T10:35:17;92054.44;;;13.60;54.45
34506;BME280;20748;42.632;23.198;2023-03-23T10:37:53;92046.03;;;13.85;53.63
34506;BME280;20748;42.632;23.198;2023-03-23T10:40:30;92059.53;;;13.65;55.92
34506;BME280;20748;42.632;23.198;2023-03-23T10:43:07;92059.50;;;13.74;55.33
34506;BME280;20748;42.632;23.198;2023-03-23T10:45:41;92062.59;;;13.67;53.22
34506;BME280;20748;42.632;23.198;2023-03-23T10:48:26;92059.59;;;13.48;53.42
34506;BME280;20748;42.632;23.198;2023-03-23T10:51:02;92059.03;;;13.24;52.94
34506;BME280;20748;42.632;23.198;2023-03-23T10:53:38;92050.47;;;13.45;54.47
34506;BME280;20748;42.632;23.198;2023-03-23T10:56:22;92045.69;;;13.56;53.00
34506;BME280;20748;42.632;23.198;2023-03-23T10:58:55;92058.09;;;13.77;54.91
34506;BME280;20748;42.632;23.198;2023-03-23T11:01:32;92044.50;;;13.83;52.55
34506;BME280;20748;42.632;23.198;2023-03-23T11:04:11;92053.53;;;13.95;52.20
34506;BME280;20748;42.632;23.198;2023-03-23T11:06:45;92047.59;;;13.77;53.54
34506;BME280;20748;42.632;23.198;2023-03-23T11:09:19;92041.22;;;13.87;53.28
34506;BME280;20748;42.632;23.198;2023-03-23T11:11:53;92036.84;;;14.21;53.35
34506;BME280;20748;42.632;23.198;2023-03-23T11:14:27;92035.50;;;13.93;52.98
34506;BME280;20748;42.632;23.198;2023-03-23T11:17:00;92030.13;;;13.90;51.37
34506;BME280;20748;42.632;23.198;2023-03-23T11:19:35;92028.84;;;13.96;51.22
34506;BME280;20748;42.632;23.198;2023-03-23T11:22:13;92024.47;;;14.00;51.63
34506;BME280;20748;42.632;23.198;2023-03-23T11:24:52;92022.94;;;13.99;49.50
34506;BME280;20748;42.632;23.198;2023-03-23T11:27:27;92028.78;;;14.05;50.55
34506;BME280;20748;42.632;23.198;2023-03-23T11:30:07;92019.44;;;13.95;51.93
34506;BME280;20748;42.632;23.198;2023-03-23T11:32:43;92014.72;;;14.09;51.05
34506;BME280;20748;42.632;23.198;2023-03-23T11:35:19;92019.78;;;14.36;52.65
34506;BME280;20748;42.632;23.198;2023-03-23T11:37:54;92022.44;;;14.48;52.02
34506;BME280;20748;42.632;23.198;2023-03-23T11:40:29;92014.09;;;14.89;50.42
34506;BME280;20748;42.632;23.198;2023-03-23T11:43:08;92015.53;;;14.99;49.09
34506;BME280;20748;42.632;23.198;2023-03-23T11:45:45;92014.13;;;15.01;49.09
34506;BME280;20748;42.632;23.198;2023-03-23T11:48:24;92012.72;;;15.04;48.16
34506;BME280;20748;42.632;23.198;2023-03-23T11:51:01;92001.22;;;15.09;48.97
34506;BME280;20748;42.632;23.198;2023-03-23T11:53:45;91998.31;;;15.48;50.26
34506;BME280;20748;42.632;23.198;2023-03-23T11:56:23;92001.38;;;15.25;48.85
34506;BME280;20748;42.632;23.198;2023-03-23T11:58:57;91995.88;;;15.17;47.41
34506;BME280;20748;42.632;23.198;2023-03-23T12:01:43;91989.19;;;15.20;46.85
34506;BME280;20748;42.632;23.198;2023-03-23T12:04:46;91987.78;;;15.35;47.53
34506;BME280;20748;42.632;23.198;2023-03-23T12:07:33;91999.19;;;15.52;48.40
34506;BME280;20748;42.632;23.198;2023-03-23T12:10:19;92003.03;;;15.54;47.59
34506;BME280;20748;42.632;23.198;2023-03-23T12:13:02;91992.28;;;15.72;47.38
34506;BME280;20748;42.632;23.198;2023-03-23T12:15:43;91993.81;;;15.73;45.84
34506;BME280;20748;42.632;23.198;2023-03-23T12:18:37;91987.16;;;15.63;46.71
34506;BME280;20748;42.632;23.198;2023-03-23T12:21:36;91989.66;;;15.72;46.24
34506;BME280;20748;42.632;23.198;2023-03-23T12:24:19;91993.13;;;16.26;43.56
34506;BME280;20748;42.632;23.198;2023-03-23T12:27:00;91991.25;;;16.27;43.80
34506;BME280;20748;42.632;23.198;2023-03-23T12:30:05;91989.41;;;16.56;44.58
34506;BME280;20748;42.632;23.198;2023-03-23T12:33:07;91984.25;;;17.04;43.35
34506;BME280;20748;42.632;23.198;2023-03-23T12:35:49;91971.56;;;16.94;43.37
34506;BME280;20748;42.632;23.198;2023-03-23T12:38:38;91977.13;;;17.37;42.87
34506;BME280;20748;42.632;23.198;2023-03-23T12:41:17;91979.19;;;17.43;42.00
34506;BME280;20748;42.632;23.198;2023-03-23T12:43:51;91967.44;;;16.80;41.71
34506;BME280;20748;42.632;23.198;2023-03-23T12:46:39;91962.94;;;17.09;40.77
34506;BME280;20748;42.632;23.198;2023-03-23T12:49:19;91967.00;;;16.62;41.54
34506;BME280;20748;42.632;23.198;2023-03-23T12:51:57;91980.53;;;16.76;43.20
34506;BME280;20748;42.632;23.198;2023-03-23T12:54:32;91963.91;;;16.88;41.75
34506;BME280;20748;42.632;23.198;2023-03-23T12:57:09;91951.56;;;16.76;41.98
34506;BME280;20748;42.632;23.198;2023-03-23T12:59:46;91967.22;;;17.01;42.72
34506;BME280;20748;42.632;23.198;2023-03-23T13:02:22;91970.44;;;16.78;41.63
34506;BME280;20748;42.632;23.198;2023-03-23T13:05:00;91964.41;;;16.78;42.55
34506;BME280;20748;42.632;23.198;2023-03-23T13:07:37;91960.03;;;17.14;41.44
34506;BME280;20748;42.632;23.198;2023-03-23T13:10:19;91955.06;;;16.97;41.47
34506;BME280;20748;42.632;23.198;2023-03-23T13:12:54;91942.78;;;17.17;41.77
34506;BME280;20748;42.632;23.198;2023-03-23T13:15:37;91951.88;;;17.03;42.46
34506;BME280;20748;42.632;23.198;2023-03-23T13:18:20;91956.09;;;16.92;42.12
34506;BME280;20748;42.632;23.198;2023-03-23T13:21:02;91945.81;;;16.87;42.01
34506;BME280;20748;42.632;23.198;2023-03-23T13:23:39;91947.28;;;16.56;41.36
34506;BME280;20748;42.632;23.198;2023-03-23T13:26:13;91932.75;;;16.33;41.71
34506;BME280;20748;42.632;23.198;2023-03-23T13:28:54;91943.16;;;16.42;43.58
34506;BME280;20748;42.632;23.198;2023-03-23T13:31:28;91955.38;;;16.63;42.81
34506;BME280;20748;42.632;23.198;2023-03-23T13:34:05;91954.69;;;16.37;42.24
34506;BME280;20748;42.632;23.198;2023-03-23T13:36:39;91951.25;;;16.49;41.31
34506;BME280;20748;42.632;23.198;2023-03-23T13:39:19;91948.47;;;16.58;40.99
34506;BME280;20748;42.632;23.198;2023-03-23T13:42:16;91948.69;;;16.37;42.16
34506;BME280;20748;42.632;23.198;2023-03-23T13:45:07;91949.84;;;16.40;41.62
34506;BME280;20748;42.632;23.198;2023-03-23T13:47:41;91949.09;;;16.39;41.01
34506;BME280;20748;42.632;23.198;2023-03-23T13:50:26;91928.31;;;16.50;41.07
34506;BME280;20748;42.632;23.198;2023-03-23T13:53:01;91941.47;;;16.95;43.17
34506;BME280;20748;42.632;23.198;2023-03-23T13:55:48;91950.00;;;16.59;40.87
34506;BME280;20748;42.632;23.198;2023-03-23T13:58:23;91940.47;;;16.26;40.71
34506;BME280;20748;42.632;23.198;2023-03-23T14:01:11;91933.06;;;16.44;40.47